Time;durP1;ratioP1;P1;durP2;ratioP2;P2;SDS_P1;SDS_P2;PMS_P1;PMS_P2;Temp;Humidity;BMP_temperature;BMP_pressure;BME280_temperature;BME280_humidity;BME280_pressure;Samples;Min_cycle;Max_cycle;Signal;HPM_P1;HPM_P2
2024/02/25 00:01:36;;;;;;;22.60;12.00;;;;;;;14.04;48.76;100553.34;108200;1251;72659;-69
2024/02/25 00:04:03;;;;;;;25.70;12.20;;;;;;;14.09;48.51;100550.46;108211;1253;60883;-67
2024/02/25 00:06:31;;;;;;;18.40;10.60;;;;;;;14.02;48.66;100550.91;108122;1252;60362;-67
2024/02/25 00:08:59;;;;;;;19.30;10.30;;;;;;;13.96;48.81;100545.71;108003;1253;73906;-67
2024/02/25 00:11:27;;;;;;;23.00;10.70;;;;;;;13.79;49.16;100549.64;108052;1252;69979;-67
2024/02/25 00:13:55;;;;;;;21.60;9.80;;;;;;;13.34;50.55;100556.34;108109;1253;72706;-67
2024/02/25 00:16:23;;;;;;;20.60;9.90;;;;;;;13.57;50.34;100553.97;108156;1253;60101;-67
2024/02/25 00:18:50;;;;;;;23.80;10.90;;;;;;;13.54;50.20;100554.62;108054;1253;60290;-67
2024/02/25 00:21:18;;;;;;;20.30;10.80;;;;;;;13.58;50.01;100558.69;108186;1254;72540;-66
2024/02/25 00:23:45;;;;;;;21.30;9.60;;;;;;;13.79;49.43;100554.42;108096;1251;70456;-67
2024/02/25 00:26:13;;;;;;;20.50;9.80;;;;;;;13.90;49.03;100561.69;108075;1253;71652;-68
2024/02/25 00:28:41;;;;;;;21.20;10.70;;;;;;;13.92;48.73;100561.10;108052;1255;58985;-65
2024/02/25 00:31:08;;;;;;;20.60;9.90;;;;;;;14.11;48.36;100560.79;108147;1253;60352;-67
2024/02/25 00:33:36;;;;;;;19.00;10.80;;;;;;;14.02;48.44;100556.95;108117;1251;72668;-66
2024/02/25 00:36:04;;;;;;;22.10;10.70;;;;;;;14.27;47.96;100556.00;108155;1251;68480;-68
2024/02/25 00:38:32;;;;;;;20.40;10.40;;;;;;;14.31;47.92;100553.70;108181;1253;72733;-68
2024/02/25 00:40:59;;;;;;;21.20;10.80;;;;;;;14.23;48.24;100557.09;108169;1253;60870;-67
2024/02/25 00:43:29;;;;;;;19.60;10.20;;;;;;;14.47;47.76;100559.33;108193;1257;60325;-67
2024/02/25 00:45:56;;;;;;;19.80;10.20;;;;;;;14.45;47.87;100557.29;108149;1258;73859;-66
2024/02/25 00:48:24;;;;;;;20.80;10.70;;;;;;;14.33;48.01;100555.00;108200;1253;70061;-67
2024/02/25 00:50:52;;;;;;;20.50;10.50;;;;;;;13.91;48.69;100557.04;108157;1251;72460;-67
2024/02/25 00:53:19;;;;;;;25.80;11.90;;;;;;;13.87;49.09;100556.54;108168;1253;60972;-67
2024/02/25 00:55:47;;;;;;;17.70;9.50;;;;;;;14.18;48.52;100561.20;108102;1251;60216;-67
2024/02/25 00:58:14;;;;;;;21.30;11.80;;;;;;;14.07;48.44;100556.55;108191;1251;74127;-67
2024/02/25 01:00:42;;;;;;;19.30;10.20;;;;;;;13.93;48.90;100562.09;108166;1251;69897;-68
2024/02/25 01:03:09;;;;;;;19.70;10.70;;;;;;;14.03;48.69;100558.48;108075;1253;72695;-67
2024/02/25 01:05:37;;;;;;;22.30;11.30;;;;;;;14.02;48.64;100560.13;108176;1253;60875;-66
2024/02/25 01:08:06;;;;;;;23.20;10.40;;;;;;;13.78;49.19;100561.15;108204;1251;60411;-68
2024/02/25 01:10:33;;;;;;;21.50;10.40;;;;;;;13.39;49.64;100570.06;108325;1257;73867;-66
2024/02/25 01:13:00;;;;;;;17.20;8.80;;;;;;;13.29;49.33;100572.56;108194;1252;69280;-68
2024/02/25 01:15:28;;;;;;;22.40;10.60;;;;;;;13.30;49.05;100564.80;108239;1253;71214;-67
2024/02/25 01:17:55;;;;;;;15.90;7.90;;;;;;;13.38;48.87;100572.59;108158;1251;60927;-67
2024/02/25 01:20:23;;;;;;;26.00;11.50;;;;;;;13.49;48.69;100568.21;108182;1257;60308;-66
2024/02/25 01:22:51;;;;;;;23.00;9.70;;;;;;;13.86;48.09;100571.07;108248;1251;71773;-67
2024/02/25 01:25:18;;;;;;;20.20;10.40;;;;;;;13.60;49.16;100573.80;108205;1253;68812;-67
2024/02/25 01:27:46;;;;;;;21.10;10.70;;;;;;;13.71;49.09;100572.23;108155;1253;72494;-67
2024/02/25 01:30:14;;;;;;;20.00;10.20;;;;;;;13.69;49.12;100572.52;108188;1253;61094;-68
2024/02/25 01:32:41;;;;;;;23.00;11.40;;;;;;;13.85;48.66;100570.95;108189;1252;60286;-67
2024/02/25 01:35:12;;;;;;;22.40;10.90;;;;;;;13.81;48.53;100575.34;108063;1253;73819;-68
2024/02/25 01:37:40;;;;;;;20.40;10.30;;;;;;;13.68;48.56;100575.39;108162;1252;69142;-67
2024/02/25 01:40:08;;;;;;;22.60;10.70;;;;;;;13.72;48.20;100573.42;108189;1253;72663;-68
2024/02/25 01:42:37;;;;;;;19.10;9.30;;;;;;;13.73;48.03;100570.77;108218;1253;60446;-66
2024/02/25 01:45:06;;;;;;;20.20;10.70;;;;;;;13.47;48.48;100574.48;108287;1251;60329;-67
2024/02/25 01:47:34;;;;;;;21.80;10.50;;;;;;;13.62;48.14;100564.34;108254;1254;73311;-66
2024/02/25 01:50:02;;;;;;;19.50;9.70;;;;;;;13.67;48.07;100566.21;108166;1251;69306;-66
2024/02/25 01:52:30;;;;;;;23.50;11.00;;;;;;;13.57;48.05;100569.47;108027;1256;71165;-67
2024/02/25 01:54:57;;;;;;;21.60;11.60;;;;;;;13.42;48.14;100573.66;107994;1253;60299;-66
2024/02/25 01:57:25;;;;;;;24.20;11.10;;;;;;;13.19;48.48;100580.18;108020;1253;60434;-66
2024/02/25 01:59:53;;;;;;;22.80;11.10;;;;;;;13.17;48.49;100586.81;108134;1251;73648;-67
2024/02/25 02:02:21;;;;;;;16.50;8.20;;;;;;;13.17;48.50;100587.88;108282;1251;69949;-66
2024/02/25 02:04:49;;;;;;;23.00;9.20;;;;;;;13.37;47.91;100587.61;108253;1253;72747;-68
2024/02/25 02:07:17;;;;;;;20.60;10.80;;;;;;;13.08;48.37;100590.67;108206;1252;60924;-68
2024/02/25 02:09:45;;;;;;;17.50;10.00;;;;;;;13.02;48.58;100604.14;108304;1251;60377;-68
2024/02/25 02:12:13;;;;;;;19.60;10.20;;;;;;;13.21;48.12;100597.23;108205;1251;72557;-66
2024/02/25 02:14:40;;;;;;;20.50;10.40;;;;;;;13.26;47.88;100588.73;108059;1253;70613;-69
2024/02/25 02:17:08;;;;;;;20.40;10.90;;;;;;;13.42;47.59;100597.45;108254;1253;72774;-68
2024/02/25 02:19:35;;;;;;;24.40;10.80;;;;;;;13.77;46.96;100585.59;108199;1254;60430;-67
2024/02/25 02:22:03;;;;;;;21.00;9.50;;;;;;;13.59;47.39;100585.65;108201;1252;60514;-67
2024/02/25 02:24:30;;;;;;;26.20;11.50;;;;;;;13.48;47.64;100585.56;108268;1252;73825;-68
2024/02/25 02:26:58;;;;;;;22.10;11.20;;;;;;;13.53;47.61;100587.99;108203;1254;69930;-68
2024/02/25 02:29:26;;;;;;;23.20;12.10;;;;;;;13.32;48.04;100583.02;108118;1251;72472;-66
2024/02/25 02:31:56;;;;;;;22.50;11.50;;;;;;;13.37;48.03;100583.91;108093;1253;61255;-67
2024/02/25 02:34:24;;;;;;;22.10;11.50;;;;;;;13.53;47.76;100581.29;108269;1253;60470;-67
2024/02/25 02:36:51;;;;;;;23.40;10.50;;;;;;;13.58;47.67;100575.43;108166;1251;72632;-67
2024/02/25 02:39:19;;;;;;;23.00;11.70;;;;;;;13.72;47.15;100573.63;108026;1254;70308;-66
2024/02/25 02:41:47;;;;;;;22.40;11.40;;;;;;;13.82;47.02;100568.23;108000;1251;72719;-68
2024/02/25 02:44:14;;;;;;;20.70;10.50;;;;;;;13.86;46.98;100567.54;108246;1251;61380;-66
2024/02/25 02:46:42;;;;;;;23.00;11.90;;;;;;;13.83;47.10;100570.14;108231;1251;60451;-67
2024/02/25 02:49:09;;;;;;;20.50;11.30;;;;;;;13.60;47.55;100567.21;108202;1251;71580;-66
2024/02/25 02:51:37;;;;;;;19.60;11.00;;;;;;;13.74;47.08;100569.13;108173;1256;70209;-67
2024/02/25 02:54:04;;;;;;;22.20;11.80;;;;;;;13.68;47.24;100569.54;108178;1257;73050;-67
2024/02/25 02:56:32;;;;;;;19.90;11.10;;;;;;;13.92;46.78;100570.46;108031;1256;60873;-67
2024/02/25 02:59:00;;;;;;;18.40;10.80;;;;;;;14.01;46.71;100570.23;108168;1251;60207;-66
2024/02/25 03:01:27;;;;;;;18.40;10.70;;;;;;;14.05;46.60;100571.45;108158;1251;74058;-69
2024/02/25 03:03:55;;;;;;;23.50;12.30;;;;;;;13.93;46.90;100570.40;108199;1251;68892;-67
2024/02/25 03:06:22;;;;;;;23.20;11.60;;;;;;;13.83;47.21;100575.08;108252;1251;71468;-66
2024/02/25 03:08:50;;;;;;;26.70;12.10;;;;;;;13.73;47.42;100572.32;108180;1254;61287;-68
2024/02/25 03:11:18;;;;;;;22.70;11.10;;;;;;;13.87;47.13;100571.38;108240;1251;60228;-66
2024/02/25 03:13:45;;;;;;;28.10;12.10;;;;;;;13.76;47.50;100563.40;108244;1253;71628;-69
2024/02/25 03:16:13;;;;;;;23.50;11.90;;;;;;;13.83;47.39;100562.73;108296;1251;69181;-66
2024/02/25 03:18:40;;;;;;;30.00;13.40;;;;;;;13.82;47.39;100554.30;108248;1254;72118;-66
2024/02/25 03:21:08;;;;;;;21.30;11.10;;;;;;;13.65;47.65;100547.27;108209;1251;60329;-66
2024/02/25 03:23:36;;;;;;;24.80;13.00;;;;;;;13.65;47.64;100546.55;108167;1253;60381;-66
2024/02/25 03:26:04;;;;;;;28.60;13.50;;;;;;;13.52;48.05;100546.77;107986;1259;72646;-67
2024/02/25 03:28:31;;;;;;;28.80;14.40;;;;;;;13.44;48.21;100551.89;108078;1253;70111;-67
2024/02/25 03:30:59;;;;;;;34.30;13.90;;;;;;;13.44;48.13;100550.98;108145;1257;71726;-68
2024/02/25 03:33:26;;;;;;;29.10;13.90;;;;;;;13.50;48.08;100552.50;107982;1252;61124;-67
2024/02/25 03:35:54;;;;;;;25.80;13.70;;;;;;;13.56;47.92;100553.10;107924;1254;119109;-67
2024/02/25 03:39:22;;;;;;;26.90;13.90;;;;;;;11.08;53.48;100568.02;104968;1289;601418;-66
2024/02/25 03:41:50;;;;;;;25.40;13.80;;;;;;;11.81;52.29;100568.13;107278;1264;59587;-67
2024/02/25 03:44:17;;;;;;;23.80;11.80;;;;;;;12.17;51.32;100570.56;107307;1264;59061;-68
2024/02/25 03:46:45;;;;;;;26.50;13.20;;;;;;;12.03;51.51;100573.88;107313;1264;72225;-67
2024/02/25 03:49:12;;;;;;;25.80;12.90;;;;;;;12.07;51.51;100574.25;107246;1270;70472;-67
2024/02/25 03:51:40;;;;;;;30.80;15.00;;;;;;;11.98;51.73;100574.93;107259;1270;72505;-67
2024/02/25 03:54:08;;;;;;;26.40;14.50;;;;;;;11.89;52.08;100575.60;107267;1267;121869;-66
2024/02/25 03:56:35;;;;;;;24.30;12.90;;;;;;;11.85;51.98;100579.42;107402;1267;59723;-67
2024/02/25 03:59:04;;;;;;;21.50;11.60;;;;;;;11.85;52.09;100578.89;107348;1264;71333;-67
2024/02/25 04:01:31;;;;;;;28.20;14.30;;;;;;;11.86;51.99;100575.35;108268;1257;70067;-67
2024/02/25 04:03:59;;;;;;;29.20;14.30;;;;;;;11.87;52.11;100578.11;108220;1251;72674;-65
2024/02/25 04:06:26;;;;;;;25.90;13.30;;;;;;;11.85;52.08;100582.76;108181;1254;60673;-64
2024/02/25 04:08:54;;;;;;;28.10;13.10;;;;;;;11.84;52.15;100583.85;108208;1251;60010;-65
2024/02/25 04:11:21;;;;;;;29.00;13.60;;;;;;;12.08;51.69;100577.75;108212;1251;71779;-66
2024/02/25 04:13:49;;;;;;;26.70;13.90;;;;;;;12.10;51.60;100576.09;108241;1254;68697;-66
2024/02/25 04:16:17;;;;;;;25.30;13.40;;;;;;;12.09;51.44;100567.86;108223;1251;72374;-65
2024/02/25 04:18:46;;;;;;;27.10;13.30;;;;;;;12.00;51.58;100565.01;108262;1253;60841;-66
2024/02/25 04:21:14;;;;;;;25.70;13.60;;;;;;;12.01;51.66;100564.97;108320;1251;59547;-66
2024/02/25 04:23:44;;;;;;;23.10;12.20;;;;;;;12.06;51.56;100569.20;108219;1251;74286;-67
2024/02/25 04:26:11;;;;;;;29.40;14.00;;;;;;;12.09;51.44;100570.85;108237;1251;69566;-66
2024/02/25 04:28:39;;;;;;;27.30;14.30;;;;;;;11.98;51.62;100566.48;108205;1251;71643;-65
2024/02/25 04:31:06;;;;;;;25.10;12.00;;;;;;;11.97;51.54;100574.64;108212;1257;60952;-66
2024/02/25 04:33:34;;;;;;;23.20;12.10;;;;;;;11.84;51.89;100578.75;108267;1254;59657;-66
2024/02/25 04:36:02;;;;;;;25.70;13.50;;;;;;;11.98;51.60;100579.86;108221;1254;72069;-66
2024/02/25 04:38:30;;;;;;;25.50;13.10;;;;;;;11.93;51.48;100577.23;108234;1254;70045;-67
2024/02/25 04:40:59;;;;;;;27.50;12.30;;;;;;;11.76;51.81;100577.80;108267;1257;71049;-64
2024/02/25 04:43:26;;;;;;;23.40;12.10;;;;;;;11.89;51.42;100580.36;108169;1254;60372;-66
2024/02/25 04:45:54;;;;;;;24.90;12.80;;;;;;;12.05;50.99;100587.20;108188;1254;59625;-67
2024/02/25 04:48:21;;;;;;;22.70;12.00;;;;;;;12.12;50.70;100585.89;108194;1251;72800;-67
2024/02/25 04:50:49;;;;;;;27.30;11.60;;;;;;;11.90;50.87;100597.54;108138;1254;70299;-65
2024/02/25 04:53:17;;;;;;;24.60;10.60;;;;;;;11.82;51.11;100601.69;108071;1254;71430;-65
2024/02/25 04:55:44;;;;;;;19.60;11.10;;;;;;;11.78;51.03;100602.88;108044;1258;60263;-68
2024/02/25 04:58:12;;;;;;;20.50;11.60;;;;;;;11.75;51.17;100608.80;108110;1254;60186;-65
2024/02/25 05:00:40;;;;;;;23.90;11.80;;;;;;;11.89;51.04;100610.80;108226;1254;73001;-65
2024/02/25 05:03:07;;;;;;;31.70;11.30;;;;;;;12.01;50.67;100605.83;108162;1254;68989;-65
2024/02/25 05:05:35;;;;;;;23.40;11.30;;;;;;;12.03;50.59;100610.67;108149;1254;71913;-66
2024/02/25 05:08:03;;;;;;;20.90;10.30;;;;;;;11.94;50.56;100609.22;108284;1257;62869;-66
2024/02/25 05:10:31;;;;;;;22.20;10.80;;;;;;;11.82;50.80;100605.20;108298;1254;58869;-66
2024/02/25 05:12:58;;;;;;;25.80;12.60;;;;;;;11.80;50.69;100601.22;108209;1254;73060;-67
2024/02/25 05:15:27;;;;;;;24.20;10.80;;;;;;;11.75;50.76;100600.02;108151;1253;68592;-67
2024/02/25 05:17:55;;;;;;;20.20;10.50;;;;;;;11.73;50.70;100599.88;108217;1254;70617;-68
2024/02/25 05:20:23;;;;;;;22.20;10.50;;;;;;;11.85;50.46;100601.25;108231;1251;60843;-67
2024/02/25 05:22:50;;;;;;;19.00;10.20;;;;;;;11.91;50.19;100605.61;108183;1254;59522;-67
2024/02/25 05:25:18;;;;;;;20.20;11.10;;;;;;;11.86;50.25;100605.09;108179;1253;73072;-68
2024/02/25 05:27:46;;;;;;;18.10;10.50;;;;;;;11.94;50.03;100610.09;108129;1257;68379;-68
2024/02/25 05:30:14;;;;;;;17.10;9.70;;;;;;;11.94;50.06;100610.95;108123;1254;72696;-68
2024/02/25 05:32:41;;;;;;;17.80;9.70;;;;;;;11.82;50.30;100608.89;108037;1254;59575;-67
2024/02/25 05:35:09;;;;;;;22.50;10.30;;;;;;;11.90;49.99;100613.76;108082;1254;60117;-66
2024/02/25 05:37:36;;;;;;;21.00;9.60;;;;;;;11.83;50.15;100618.02;108208;1258;73071;-67
2024/02/25 05:40:05;;;;;;;21.70;9.80;;;;;;;11.81;50.19;100617.71;108155;1254;68877;-67
2024/02/25 05:42:35;;;;;;;21.70;9.80;;;;;;;11.83;50.07;100618.35;108130;1253;71475;-67
2024/02/25 05:45:03;;;;;;;19.80;10.30;;;;;;;11.81;50.17;100623.02;108093;1255;60857;-67
2024/02/25 05:47:31;;;;;;;18.80;9.20;;;;;;;11.89;49.90;100631.05;108248;1254;59512;-67
2024/02/25 05:49:59;;;;;;;21.20;9.40;;;;;;;11.79;49.99;100636.63;108117;1253;73243;-67
2024/02/25 05:52:26;;;;;;;19.00;9.90;;;;;;;11.69;50.06;100639.94;108169;1254;68890;-66
2024/02/25 05:54:56;;;;;;;18.40;9.60;;;;;;;11.65;50.20;100642.91;108065;1260;71845;-65
2024/02/25 05:57:23;;;;;;;21.70;9.40;;;;;;;11.68;49.96;100642.81;108049;1254;59641;-67
2024/02/25 05:59:51;;;;;;;16.60;9.00;;;;;;;11.59;50.30;100640.81;108047;1253;59592;-66
2024/02/25 06:02:18;;;;;;;19.20;9.00;;;;;;;11.67;50.01;100642.46;108052;1254;73045;-66
2024/02/25 06:04:46;;;;;;;18.60;9.80;;;;;;;11.80;49.85;100641.34;108111;1254;69981;-66
2024/02/25 06:07:13;;;;;;;15.90;8.50;;;;;;;11.85;49.72;100645.05;108046;1253;71447;-67
2024/02/25 06:09:41;;;;;;;19.00;9.30;;;;;;;11.77;49.84;100652.86;108015;1253;60943;-65
2024/02/25 06:12:09;;;;;;;21.20;9.20;;;;;;;11.70;49.87;100646.08;108055;1254;60133;-66
2024/02/25 06:14:36;;;;;;;18.10;9.00;;;;;;;11.50;50.21;100645.14;108070;1254;75294;-67
2024/02/25 06:17:04;;;;;;;18.70;8.70;;;;;;;11.54;50.17;100642.55;108042;1254;69962;-66
2024/02/25 06:19:33;;;;;;;19.00;9.00;;;;;;;11.59;49.98;100639.75;108127;1254;71769;-67
2024/02/25 06:22:01;;;;;;;20.40;8.60;;;;;;;11.53;49.96;100638.67;108020;1254;61066;-67
2024/02/25 06:24:29;;;;;;;17.40;8.40;;;;;;;11.51;50.04;100645.29;108075;1254;59637;-67
2024/02/25 06:26:56;;;;;;;21.80;9.40;;;;;;;11.51;50.05;100646.33;108077;1254;73006;-68
2024/02/25 06:29:24;;;;;;;18.80;8.90;;;;;;;11.43;50.27;100639.75;108044;1253;70530;-67
2024/02/25 06:31:52;;;;;;;16.00;8.10;;;;;;;11.42;50.19;100633.80;108063;1254;72736;-66
2024/02/25 06:34:19;;;;;;;16.50;8.20;;;;;;;11.23;50.56;100637.73;108155;1254;59742;-67
2024/02/25 06:36:47;;;;;;;16.40;8.50;;;;;;;11.29;50.38;100639.84;108166;1251;59525;-67
2024/02/25 06:39:17;;;;;;;17.80;8.20;;;;;;;11.41;50.18;100641.23;108165;1254;73027;-66
2024/02/25 06:41:44;;;;;;;18.20;8.40;;;;;;;11.46;49.94;100644.75;108121;1254;69303;-67
2024/02/25 06:44:12;;;;;;;14.70;7.30;;;;;;;11.47;50.04;100647.87;108188;1254;73207;-66
2024/02/25 06:46:40;;;;;;;22.70;7.70;;;;;;;11.37;50.17;100651.38;108062;1254;59643;-68
2024/02/25 06:49:08;;;;;;;20.10;8.10;;;;;;;11.31;50.41;100649.09;108004;1253;59945;-67
2024/02/25 06:51:36;;;;;;;16.00;7.60;;;;;;;11.40;50.11;100648.63;108047;1254;73006;-67
2024/02/25 06:54:04;;;;;;;20.10;9.00;;;;;;;11.08;50.82;100648.91;108035;1254;69962;-68
2024/02/25 06:56:31;;;;;;;15.50;7.80;;;;;;;11.12;50.82;100644.77;108058;1257;72058;-67
2024/02/25 06:58:59;;;;;;;17.80;8.40;;;;;;;11.27;50.57;100642.73;108035;1254;59574;-68
2024/02/25 07:01:26;;;;;;;20.50;8.00;;;;;;;11.25;50.77;100643.85;108085;1252;60013;-67
2024/02/25 07:03:54;;;;;;;16.40;8.10;;;;;;;11.23;50.69;100643.02;107967;1254;72344;-68
2024/02/25 07:06:21;;;;;;;19.40;8.30;;;;;;;11.21;50.61;100637.11;108119;1254;70323;-67
2024/02/25 07:08:50;;;;;;;20.00;8.20;;;;;;;11.23;50.57;100628.08;108096;1253;72618;-67
2024/02/25 07:11:19;;;;;;;20.40;8.00;;;;;;;11.30;50.47;100622.06;107998;1253;61165;-67
2024/02/25 07:13:48;;;;;;;19.20;8.40;;;;;;;11.27;50.39;100615.48;108222;1253;60096;-67
2024/02/25 07:16:16;;;;;;;22.00;8.60;;;;;;;11.25;50.46;100620.08;108139;1253;71459;-66
2024/02/25 07:18:43;;;;;;;15.50;8.20;;;;;;;11.41;50.13;100621.55;108111;1254;68848;-67
2024/02/25 07:21:13;;;;;;;16.20;7.90;;;;;;;11.42;50.14;100625.52;108117;1254;72751;-66
2024/02/25 07:23:43;;;;;;;22.60;7.50;;;;;;;11.52;49.81;100628.19;108121;1253;59759;-67
2024/02/25 07:26:14;;;;;;;20.00;8.40;;;;;;;11.55;49.76;100637.27;108124;1251;59502;-68
2024/02/25 07:28:42;;;;;;;16.20;7.80;;;;;;;11.46;49.75;100639.29;108229;1252;73088;-68
2024/02/25 07:31:16;;;;;;;20.30;8.70;;;;;;;11.52;49.64;100645.24;108170;1253;69021;-67
2024/02/25 07:33:46;;;;;;;59.40;25.60;;;;;;;11.68;49.25;100652.14;108021;1254;72522;-67
2024/02/25 07:36:15;;;;;;;70.20;29.20;;;;;;;11.82;48.75;100654.81;108139;1254;60965;-68
2024/02/25 07:38:43;;;;;;;39.30;16.30;;;;;;;11.96;48.61;100652.09;108157;1252;59135;-67
2024/02/25 07:41:10;;;;;;;17.30;7.80;;;;;;;11.87;48.41;100652.19;108049;1254;73031;-68
2024/02/25 07:43:38;;;;;;;45.30;31.40;;;;;;;12.00;48.14;100655.64;108105;1253;70568;-68
2024/02/25 07:46:06;;;;;;;21.90;10.70;;;;;;;12.02;47.91;100658.39;108106;1254;72677;-68
2024/02/25 07:48:34;;;;;;;16.30;8.50;;;;;;;12.03;47.57;100664.00;108099;1254;60291;-67
2024/02/25 07:51:02;;;;;;;16.60;7.70;;;;;;;11.90;47.51;100664.42;108089;1254;60315;-68
2024/02/25 07:53:30;;;;;;;11.20;6.30;;;;;;;12.12;47.06;100661.89;108031;1254;72680;-67
2024/02/25 07:55:57;;;;;;;17.20;7.50;;;;;;;11.98;47.34;100660.12;108134;1253;70365;-67
2024/02/25 07:58:25;;;;;;;20.40;7.80;;;;;;;11.83;47.59;100657.45;108112;1254;72459;-67
2024/02/25 08:00:52;;;;;;;14.50;7.80;;;;;;;12.04;47.51;100654.44;108034;1254;60991;-67
2024/02/25 08:03:20;;;;;;;20.40;8.10;;;;;;;11.92;47.78;100657.68;108128;1257;60440;-67
2024/02/25 08:05:49;;;;;;;16.00;7.70;;;;;;;11.69;48.26;100655.96;108104;1258;73939;-67
2024/02/25 08:08:17;;;;;;;13.00;7.40;;;;;;;11.72;48.45;100656.89;108092;1254;70311;-67
2024/02/25 08:10:45;;;;;;;14.70;7.00;;;;;;;11.77;48.33;100649.71;108149;1254;72458;-69
2024/02/25 08:13:12;;;;;;;16.80;7.00;;;;;;;11.80;48.29;100657.01;108180;1253;60910;-68
2024/02/25 08:15:40;;;;;;;15.40;7.80;;;;;;;11.74;48.55;100653.84;108119;1254;60332;-68
2024/02/25 08:18:08;;;;;;;17.90;8.00;;;;;;;11.81;48.50;100660.34;108067;1254;73914;-69
2024/02/25 08:20:36;;;;;;;15.80;6.70;;;;;;;11.76;48.67;100667.52;107922;1252;70783;-67
2024/02/25 08:23:03;;;;;;;23.30;7.70;;;;;;;11.86;48.33;100665.08;108065;1254;72651;-67
2024/02/25 08:25:31;;;;;;;16.80;7.50;;;;;;;11.82;48.48;100666.60;108116;1254;60878;-67
2024/02/25 08:27:58;;;;;;;16.70;8.30;;;;;;;11.68;48.42;100665.30;108119;1253;60444;-67
2024/02/25 08:30:28;;;;;;;16.10;7.90;;;;;;;11.74;48.39;100660.72;108061;1252;73826;-67
2024/02/25 08:32:56;;;;;;;16.60;8.10;;;;;;;11.82;48.33;100660.95;107977;1259;70515;-68
2024/02/25 08:35:24;;;;;;;19.60;8.30;;;;;;;11.66;48.69;100657.10;108207;1253;71451;-67
2024/02/25 08:37:52;;;;;;;19.10;7.70;;;;;;;11.77;48.43;100654.11;108231;1251;60857;-67
2024/02/25 08:40:21;;;;;;;20.00;8.40;;;;;;;11.83;48.04;100660.25;108335;1251;60488;-67
2024/02/25 08:42:48;;;;;;;16.40;7.80;;;;;;;11.79;47.84;100658.08;108333;1251;73151;-67
2024/02/25 08:45:16;;;;;;;18.40;7.30;;;;;;;11.81;47.72;100659.77;108238;1251;70227;-66
2024/02/25 08:47:43;;;;;;;19.30;8.70;;;;;;;11.78;47.76;100660.21;108263;1251;74859;-68
2024/02/25 08:50:12;;;;;;;16.50;7.70;;;;;;;11.97;47.57;100654.34;108254;1254;59696;-67
2024/02/25 08:52:40;;;;;;;19.70;8.60;;;;;;;12.16;47.52;100654.02;108283;1251;60351;-68
2024/02/25 08:55:08;;;;;;;20.00;8.20;;;;;;;12.05;47.22;100653.00;108246;1256;76004;-67
2024/02/25 08:57:38;;;;;;;;;;;;;;;12.19;46.83;100647.24;108280;1256;69831;-66
2024/02/25 09:00:07;;;;;;;18.50;8.10;;;;;;;12.27;46.56;100637.80;108231;1254;72311;-67
2024/02/25 09:02:36;;;;;;;21.90;8.30;;;;;;;12.47;46.25;100633.38;108149;1251;60831;-68
2024/02/25 09:05:05;;;;;;;13.60;7.20;;;;;;;12.61;46.04;100632.51;108247;1251;60838;-67
2024/02/25 09:07:35;;;;;;;17.20;8.30;;;;;;;12.85;45.53;100636.17;108297;1251;74083;-67
2024/02/25 09:10:08;;;;;;;15.00;8.00;;;;;;;13.21;44.98;100639.20;108128;1251;68830;-66
2024/02/25 09:12:38;;;;;;;18.40;7.30;;;;;;;13.37;44.50;100639.13;108202;1251;72682;-68
2024/02/25 09:15:06;;;;;;;21.10;7.50;;;;;;;13.35;44.41;100639.19;108236;1254;60370;-67
2024/02/25 09:17:33;;;;;;;15.90;7.10;;;;;;;13.36;44.19;100643.02;108221;1251;60479;-69
2024/02/25 09:20:01;;;;;;;17.50;7.50;;;;;;;13.52;43.75;100644.50;108165;1251;72652;-68
2024/02/25 09:22:29;;;;;;;18.30;7.70;;;;;;;13.57;43.63;100642.52;108184;1251;71512;-68
2024/02/25 09:24:57;;;;;;;23.60;7.90;;;;;;;13.64;43.45;100642.56;108091;1251;71380;-67
2024/02/25 09:27:24;;;;;;;21.50;7.80;;;;;;;13.66;43.11;100638.27;108196;1251;60973;-67
2024/02/25 09:29:52;;;;;;;22.50;8.20;;;;;;;13.75;43.01;100632.61;108233;1251;60450;-68
2024/02/25 09:32:20;;;;;;;17.40;7.90;;;;;;;13.46;43.43;100636.23;108179;1251;72436;-68
2024/02/25 09:34:47;;;;;;;19.90;7.60;;;;;;;13.28;43.65;100631.33;108061;1254;67826;-67
2024/02/25 09:37:15;;;;;;;23.10;8.80;;;;;;;13.19;44.02;100634.50;108161;1253;71998;-67
2024/02/25 09:39:47;;;;;;;21.20;8.10;;;;;;;13.22;43.67;100631.21;108090;1253;60859;-67
2024/02/25 09:42:15;;;;;;;17.10;8.30;;;;;;;13.09;43.76;100634.52;108025;1253;59981;-67
2024/02/25 09:44:42;;;;;;;19.70;7.90;;;;;;;13.23;43.72;100624.85;108006;1253;72523;-66
2024/02/25 09:47:11;;;;;;;17.40;7.40;;;;;;;13.21;43.62;100627.02;108052;1254;71569;-67
2024/02/25 09:49:39;;;;;;;15.70;7.90;;;;;;;13.00;43.95;100623.79;108134;1253;74878;-68
2024/02/25 09:52:09;;;;;;;18.30;7.50;;;;;;;12.76;44.39;100624.34;108052;1254;60282;-68
2024/02/25 09:54:36;;;;;;;22.70;7.80;;;;;;;12.94;44.45;100619.43;108051;1253;60568;-69
2024/02/25 09:57:04;;;;;;;18.90;8.20;;;;;;;13.03;44.38;100612.39;108060;1254;73943;-67
2024/02/25 09:59:32;;;;;;;20.70;8.40;;;;;;;13.13;44.28;100614.79;108062;1256;72737;-67
2024/02/25 10:02:02;;;;;;;22.10;7.30;;;;;;;13.16;44.14;100617.52;108070;1254;72294;-67
2024/02/25 10:04:30;;;;;;;19.30;9.10;;;;;;;12.99;44.09;100615.73;108069;1254;61226;-67
2024/02/25 10:07:01;;;;;;;17.00;7.50;;;;;;;12.93;44.37;100611.20;108071;1252;60187;-65
2024/02/25 10:09:30;;;;;;;17.40;8.10;;;;;;;12.82;44.55;100621.50;108064;1253;72680;-68
2024/02/25 10:11:58;;;;;;;18.30;8.00;;;;;;;12.73;44.79;100616.89;108035;1254;71430;-67
2024/02/25 10:14:26;;;;;;;15.70;8.20;;;;;;;12.83;44.86;100615.10;108075;1254;72458;-67
2024/02/25 10:17:01;;;;;;;28.90;9.00;;;;;;;12.78;44.74;100616.20;108107;1254;60572;-68
2024/02/25 10:19:28;;;;;;;18.90;8.10;;;;;;;12.87;44.84;100611.27;108120;1253;62254;-68
2024/02/25 10:22:09;;;;;;;16.40;7.60;;;;;;;12.92;44.60;100611.23;108218;1257;76086;-68
2024/02/25 10:24:39;;;;;;;17.40;8.70;;;;;;;12.93;44.64;100606.28;108123;1252;70524;-67
2024/02/25 10:27:08;;;;;;;18.20;7.70;;;;;;;13.14;44.34;100598.55;108037;1255;75682;-68
2024/02/25 10:29:55;;;;;;;18.10;7.30;;;;;;;13.15;44.25;100602.05;108067;1253;63030;-68
2024/02/25 10:32:29;;;;;;;14.80;8.10;;;;;;;13.27;44.04;100601.39;108118;1254;59579;-68
2024/02/25 10:35:00;;;;;;;22.10;8.80;;;;;;;13.08;44.40;100600.55;108268;1253;76028;-67
2024/02/25 10:37:28;;;;;;;15.30;6.20;;;;;;;13.24;44.04;100595.86;108272;1254;69185;-68
2024/02/25 10:39:58;;;;;;;18.10;8.80;;;;;;;13.22;44.33;100595.25;108208;1253;73238;-67
2024/02/25 10:42:27;;;;;;;20.20;7.90;;;;;;;13.26;44.29;100594.04;108078;1254;61830;-68
2024/02/25 10:44:56;;;;;;;25.20;9.10;;;;;;;13.38;43.96;100596.91;108261;1256;61251;-67
2024/02/25 10:47:25;;;;;;;16.30;7.30;;;;;;;13.48;44.02;100594.04;108154;1253;72944;-66
2024/02/25 10:49:55;;;;;;;21.90;9.40;;;;;;;13.51;44.19;100589.87;108221;1254;70731;-67
2024/02/25 10:52:25;;;;;;;14.80;7.90;;;;;;;13.63;44.09;100583.70;108167;1252;75353;-68
2024/02/25 10:54:53;;;;;;;22.50;9.50;;;;;;;13.67;43.92;100583.17;108209;1253;60485;-67
2024/02/25 10:57:21;;;;;;;25.90;9.00;;;;;;;13.69;43.83;100575.32;108126;1254;61325;-67
2024/02/25 10:59:49;;;;;;;20.50;8.40;;;;;;;13.90;43.56;100571.23;108127;1253;73850;-67
2024/02/25 11:02:19;;;;;;;15.70;7.10;;;;;;;14.09;43.29;100571.27;108185;1254;71452;-67
2024/02/25 11:04:47;;;;;;;13.70;7.70;;;;;;;13.93;43.22;100578.34;108079;1254;72214;-67
2024/02/25 11:07:15;;;;;;;17.30;7.90;;;;;;;14.11;43.16;100576.16;108090;1256;60732;-67
2024/02/25 11:09:43;;;;;;;18.60;8.50;;;;;;;14.17;43.21;100577.13;108314;1254;61027;-69
2024/02/25 11:12:24;;;;;;;23.80;11.20;;;;;;;14.29;43.02;100574.30;108138;1254;76140;-67